sensor_id;sensor_type;location;lat;lon;timestamp;temperature;humidity
50560;DHT22;36510;52.610;13.468;2022-08-01T00:02:33;23.80;28.70
50560;DHT22;36510;52.610;13.468;2022-08-01T00:07:24;23.80;29.00
50560;DHT22;36510;52.610;13.468;2022-08-01T00:12:14;23.70;29.40
50560;DHT22;36510;52.610;13.468;2022-08-01T00:17:05;23.70;29.20
50560;DHT22;36510;52.610;13.468;2022-08-01T00:21:55;23.70;29.40
50560;DHT22;36510;52.610;13.468;2022-08-01T00:26:46;23.70;29.30
50560;DHT22;36510;52.610;13.468;2022-08-01T00:31:36;23.60;29.50
50560;DHT22;36510;52.610;13.468;2022-08-01T00:36:27;23.60;32.00
50560;DHT22;36510;52.610;13.468;2022-08-01T00:41:17;23.60;33.80
50560;DHT22;36510;52.610;13.468;2022-08-01T00:46:08;23.50;36.30
50560;DHT22;36510;52.610;13.468;2022-08-01T00:50:58;23.30;38.10
50560;DHT22;36510;52.610;13.468;2022-08-01T00:55:49;23.10;39.00
50560;DHT22;36510;52.610;13.468;2022-08-01T01:00:39;22.90;41.60
50560;DHT22;36510;52.610;13.468;2022-08-01T01:05:32;22.90;42.50
50560;DHT22;36510;52.610;13.468;2022-08-01T01:10:45;22.80;43.60
50560;DHT22;36510;52.610;13.468;2022-08-01T01:15:43;22.80;45.60
50560;DHT22;36510;52.610;13.468;2022-08-01T01:20:41;22.70;44.90
50560;DHT22;36510;52.610;13.468;2022-08-01T01:25:46;22.70;45.70
50560;DHT22;36510;52.610;13.468;2022-08-01T01:30:43;22.70;45.70
50560;DHT22;36510;52.610;13.468;2022-08-01T01:35:37;22.70;46.20
50560;DHT22;36510;52.610;13.468;2022-08-01T01:40:30;22.70;45.60
50560;DHT22;36510;52.610;13.468;2022-08-01T01:45:21;22.60;46.20
50560;DHT22;36510;52.610;13.468;2022-08-01T01:50:13;22.60;46.20
50560;DHT22;36510;52.610;13.468;2022-08-01T01:55:06;22.60;46.20
50560;DHT22;36510;52.610;13.468;2022-08-01T01:59:59;22.50;46.60
50560;DHT22;36510;52.610;13.468;2022-08-01T02:04:51;22.40;46.60
50560;DHT22;36510;52.610;13.468;2022-08-01T02:09:43;22.40;46.10
50560;DHT22;36510;52.610;13.468;2022-08-01T02:14:34;22.40;46.80
50560;DHT22;36510;52.610;13.468;2022-08-01T02:19:26;22.40;46.30
50560;DHT22;36510;52.610;13.468;2022-08-01T02:29:07;22.30;46.50
50560;DHT22;36510;52.610;13.468;2022-08-01T02:34:04;22.20;46.20
50560;DHT22;36510;52.610;13.468;2022-08-01T02:38:57;22.20;46.70
50560;DHT22;36510;52.610;13.468;2022-08-01T02:43:52;22.10;47.10
50560;DHT22;36510;52.610;13.468;2022-08-01T02:48:44;22.10;47.30
50560;DHT22;36510;52.610;13.468;2022-08-01T02:53:37;22.10;47.40
50560;DHT22;36510;52.610;13.468;2022-08-01T02:58:29;22.00;47.80
50560;DHT22;36510;52.610;13.468;2022-08-01T03:03:20;22.10;47.60
50560;DHT22;36510;52.610;13.468;2022-08-01T03:08:11;22.00;47.50
50560;DHT22;36510;52.610;13.468;2022-08-01T03:13:05;22.00;47.40
50560;DHT22;36510;52.610;13.468;2022-08-01T03:17:57;21.90;47.70
50560;DHT22;36510;52.610;13.468;2022-08-01T03:22:50;21.90;47.40
50560;DHT22;36510;52.610;13.468;2022-08-01T03:27:47;21.90;47.00
50560;DHT22;36510;52.610;13.468;2022-08-01T03:32:38;21.90;47.20
50560;DHT22;36510;52.610;13.468;2022-08-01T03:37:55;22.00;46.80
50560;DHT22;36510;52.610;13.468;2022-08-01T03:42:48;22.00;46.70
50560;DHT22;36510;52.610;13.468;2022-08-01T03:47:42;22.00;46.90
50560;DHT22;36510;52.610;13.468;2022-08-01T03:52:34;22.00;46.90
50560;DHT22;36510;52.610;13.468;2022-08-01T03:57:29;22.00;47.00
50560;DHT22;36510;52.610;13.468;2022-08-01T04:02:21;22.00;47.30
50560;DHT22;36510;52.610;13.468;2022-08-01T04:07:29;21.90;47.30
50560;DHT22;36510;52.610;13.468;2022-08-01T04:12:20;22.00;47.30
50560;DHT22;36510;52.610;13.468;2022-08-01T04:17:11;22.00;47.70
50560;DHT22;36510;52.610;13.468;2022-08-01T04:22:02;21.90;47.80
50560;DHT22;36510;52.610;13.468;2022-08-01T04:26:53;22.00;47.40
50560;DHT22;36510;52.610;13.468;2022-08-01T04:31:45;22.10;47.60
50560;DHT22;36510;52.610;13.468;2022-08-01T04:36:36;22.00;47.60
50560;DHT22;36510;52.610;13.468;2022-08-01T04:41:29;22.10;47.80
50560;DHT22;36510;52.610;13.468;2022-08-01T04:46:20;22.10;47.70
50560;DHT22;36510;52.610;13.468;2022-08-01T04:51:14;22.20;47.70
50560;DHT22;36510;52.610;13.468;2022-08-01T04:56:05;22.20;47.90
50560;DHT22;36510;52.610;13.468;2022-08-01T05:00:56;22.20;48.10
50560;DHT22;36510;52.610;13.468;2022-08-01T05:05:46;22.20;48.70
50560;DHT22;36510;52.610;13.468;2022-08-01T05:10:37;22.20;48.90
50560;DHT22;36510;52.610;13.468;2022-08-01T05:15:27;22.10;49.70
50560;DHT22;36510;52.610;13.468;2022-08-01T05:20:18;22.10;50.20
50560;DHT22;36510;52.610;13.468;2022-08-01T05:25:08;22.20;50.30
50560;DHT22;36510;52.610;13.468;2022-08-01T05:29:59;22.10;50.50
50560;DHT22;36510;52.610;13.468;2022-08-01T05:34:49;22.10;51.20
50560;DHT22;36510;52.610;13.468;2022-08-01T05:39:40;22.00;52.80
50560;DHT22;36510;52.610;13.468;2022-08-01T05:44:30;22.00;53.20
50560;DHT22;36510;52.610;13.468;2022-08-01T05:49:21;22.10;52.80
50560;DHT22;36510;52.610;13.468;2022-08-01T05:54:11;22.10;52.40
50560;DHT22;36510;52.610;13.468;2022-08-01T05:59:02;22.10;52.50
50560;DHT22;36510;52.610;13.468;2022-08-01T06:03:53;22.10;52.20
50560;DHT22;36510;52.610;13.468;2022-08-01T06:08:44;22.20;52.80
50560;DHT22;36510;52.610;13.468;2022-08-01T06:13:35;22.10;53.40
50560;DHT22;36510;52.610;13.468;2022-08-01T06:18:25;22.20;52.60
50560;DHT22;36510;52.610;13.468;2022-08-01T06:23:16;22.10;52.60
50560;DHT22;36510;52.610;13.468;2022-08-01T06:28:06;22.20;52.40
50560;DHT22;36510;52.610;13.468;2022-08-01T06:32:57;22.10;52.60
50560;DHT22;36510;52.610;13.468;2022-08-01T06:37:48;22.10;52.90
50560;DHT22;36510;52.610;13.468;2022-08-01T06:42:39;22.20;53.20
50560;DHT22;36510;52.610;13.468;2022-08-01T06:47:29;22.30;53.60
50560;DHT22;36510;52.610;13.468;2022-08-01T06:52:20;22.40;52.50
50560;DHT22;36510;52.610;13.468;2022-08-01T06:57:10;22.40;51.70
50560;DHT22;36510;52.610;13.468;2022-08-01T07:02:01;22.60;50.20
50560;DHT22;36510;52.610;13.468;2022-08-01T07:06:52;22.60;50.00
50560;DHT22;36510;52.610;13.468;2022-08-01T07:11:42;22.70;49.90
50560;DHT22;36510;52.610;13.468;2022-08-01T07:16:33;22.70;49.40
50560;DHT22;36510;52.610;13.468;2022-08-01T07:21:23;22.70;49.20
50560;DHT22;36510;52.610;13.468;2022-08-01T07:26:14;22.70;49.20
50560;DHT22;36510;52.610;13.468;2022-08-01T07:31:04;22.70;48.40
50560;DHT22;36510;52.610;13.468;2022-08-01T07:35:55;22.70;48.10
50560;DHT22;36510;52.610;13.468;2022-08-01T07:40:45;22.80;48.50
50560;DHT22;36510;52.610;13.468;2022-08-01T07:45:36;22.90;47.60
50560;DHT22;36510;52.610;13.468;2022-08-01T07:50:26;22.80;47.70
50560;DHT22;36510;52.610;13.468;2022-08-01T07:55:17;22.80;47.60
50560;DHT22;36510;52.610;13.468;2022-08-01T08:00:08;22.90;48.00
50560;DHT22;36510;52.610;13.468;2022-08-01T08:04:59;23.00;46.50
50560;DHT22;36510;52.610;13.468;2022-08-01T08:09:50;23.10;45.90
50560;DHT22;36510;52.610;13.468;2022-08-01T08:14:40;23.00;45.50
50560;DHT22;36510;52.610;13.468;2022-08-01T08:19:31;23.10;44.90
50560;DHT22;36510;52.610;13.468;2022-08-01T08:24:23;23.10;44.50
50560;DHT22;36510;52.610;13.468;2022-08-01T08:29:14;23.10;44.80
50560;DHT22;36510;52.610;13.468;2022-08-01T08:34:05;23.20;45.00
50560;DHT22;36510;52.610;13.468;2022-08-01T08:38:55;23.20;44.80
50560;DHT22;36510;52.610;13.468;2022-08-01T08:43:46;23.30;44.90
50560;DHT22;36510;52.610;13.468;2022-08-01T08:48:37;23.50;44.00
50560;DHT22;36510;52.610;13.468;2022-08-01T08:53:31;23.50;43.90
50560;DHT22;36510;52.610;13.468;2022-08-01T08:58:26;23.50;43.20
50560;DHT22;36510;52.610;13.468;2022-08-01T09:03:17;23.50;43.30
50560;DHT22;36510;52.610;13.468;2022-08-01T09:08:08;23.60;42.70
50560;DHT22;36510;52.610;13.468;2022-08-01T09:13:03;23.80;41.50
50560;DHT22;36510;52.610;13.468;2022-08-01T09:17:54;23.90;41.10
50560;DHT22;36510;52.610;13.468;2022-08-01T09:22:45;24.00;40.90
50560;DHT22;36510;52.610;13.468;2022-08-01T09:27:37;24.10;39.60
50560;DHT22;36510;52.610;13.468;2022-08-01T09:32:29;24.00;38.60
50560;DHT22;36510;52.610;13.468;2022-08-01T09:37:30;23.90;39.00
50560;DHT22;36510;52.610;13.468;2022-08-01T09:42:25;23.80;38.50
50560;DHT22;36510;52.610;13.468;2022-08-01T09:47:18;23.80;38.50
50560;DHT22;36510;52.610;13.468;2022-08-01T09:52:12;23.80;38.30
50560;DHT22;36510;52.610;13.468;2022-08-01T09:57:14;23.80;39.20
50560;DHT22;36510;52.610;13.468;2022-08-01T10:02:05;23.70;38.40
50560;DHT22;36510;52.610;13.468;2022-08-01T10:07:04;23.60;38.70
50560;DHT22;36510;52.610;13.468;2022-08-01T10:11:56;23.50;39.20
50560;DHT22;36510;52.610;13.468;2022-08-01T10:16:48;23.50;39.60
50560;DHT22;36510;52.610;13.468;2022-08-01T10:21:40;23.60;39.50
50560;DHT22;36510;52.610;13.468;2022-08-01T10:26:33;23.60;39.60
50560;DHT22;36510;52.610;13.468;2022-08-01T10:31:24;23.60;39.80
50560;DHT22;36510;52.610;13.468;2022-08-01T10:36:19;23.70;40.10
50560;DHT22;36510;52.610;13.468;2022-08-01T10:41:12;23.80;40.10
50560;DHT22;36510;52.610;13.468;2022-08-01T10:46:05;23.90;39.80
50560;DHT22;36510;52.610;13.468;2022-08-01T10:50:59;23.90;39.40
50560;DHT22;36510;52.610;13.468;2022-08-01T11:00:41;23.80;39.10
50560;DHT22;36510;52.610;13.468;2022-08-01T11:05:33;23.80;39.30
50560;DHT22;36510;52.610;13.468;2022-08-01T11:10:38;23.80;40.00
50560;DHT22;36510;52.610;13.468;2022-08-01T11:15:28;23.80;39.50
50560;DHT22;36510;52.610;13.468;2022-08-01T11:20:22;23.80;39.20
50560;DHT22;36510;52.610;13.468;2022-08-01T11:25:12;23.90;39.50
50560;DHT22;36510;52.610;13.468;2022-08-01T11:34:59;23.60;40.30
50560;DHT22;36510;52.610;13.468;2022-08-01T11:45:08;23.40;41.10
50560;DHT22;36510;52.610;13.468;2022-08-01T11:50:02;23.40;41.70
50560;DHT22;36510;52.610;13.468;2022-08-01T11:55:07;23.40;42.10
50560;DHT22;36510;52.610;13.468;2022-08-01T11:59:59;23.50;41.60
50560;DHT22;36510;52.610;13.468;2022-08-01T12:04:59;23.60;41.70
50560;DHT22;36510;52.610;13.468;2022-08-01T12:10:13;23.60;41.90
50560;DHT22;36510;52.610;13.468;2022-08-01T12:15:06;23.70;41.60
50560;DHT22;36510;52.610;13.468;2022-08-01T12:19:57;23.90;41.30
50560;DHT22;36510;52.610;13.468;2022-08-01T12:24:48;24.10;38.70
50560;DHT22;36510;52.610;13.468;2022-08-01T12:29:40;24.30;38.50
50560;DHT22;36510;52.610;13.468;2022-08-01T12:34:31;24.20;36.80
50560;DHT22;36510;52.610;13.468;2022-08-01T12:39:34;24.00;36.40
50560;DHT22;36510;52.610;13.468;2022-08-01T12:44:26;23.90;37.20
50560;DHT22;36510;52.610;13.468;2022-08-01T12:49:18;23.80;38.50
50560;DHT22;36510;52.610;13.468;2022-08-01T12:54:08;23.80;39.00
50560;DHT22;36510;52.610;13.468;2022-08-01T12:59:00;24.00;38.60
50560;DHT22;36510;52.610;13.468;2022-08-01T13:04:02;24.20;37.90
50560;DHT22;36510;52.610;13.468;2022-08-01T13:08:54;24.20;41.60
50560;DHT22;36510;52.610;13.468;2022-08-01T13:13:47;24.20;40.40
50560;DHT22;36510;52.610;13.468;2022-08-01T13:18:39;24.30;40.10
50560;DHT22;36510;52.610;13.468;2022-08-01T13:23:42;24.30;38.90
50560;DHT22;36510;52.610;13.468;2022-08-01T13:29:04;24.30;38.90
50560;DHT22;36510;52.610;13.468;2022-08-01T13:33:55;24.20;39.40
50560;DHT22;36510;52.610;13.468;2022-08-01T13:38:46;24.10;39.30
50560;DHT22;36510;52.610;13.468;2022-08-01T13:43:55;24.20;38.80
50560;DHT22;36510;52.610;13.468;2022-08-01T13:48:45;24.30;38.90
50560;DHT22;36510;52.610;13.468;2022-08-01T13:53:36;24.40;39.00
50560;DHT22;36510;52.610;13.468;2022-08-01T13:58:26;24.50;38.60
50560;DHT22;36510;52.610;13.468;2022-08-01T14:03:18;24.50;38.70
50560;DHT22;36510;52.610;13.468;2022-08-01T14:08:09;24.40;38.50
50560;DHT22;36510;52.610;13.468;2022-08-01T14:12:59;24.40;38.70
50560;DHT22;36510;52.610;13.468;2022-08-01T14:17:50;24.40;38.40
50560;DHT22;36510;52.610;13.468;2022-08-01T14:22:41;24.60;37.60
50560;DHT22;36510;52.610;13.468;2022-08-01T14:27:31;24.70;36.70
50560;DHT22;36510;52.610;13.468;2022-08-01T14:32:26;24.80;36.50
50560;DHT22;36510;52.610;13.468;2022-08-01T14:37:16;24.90;35.90
50560;DHT22;36510;52.610;13.468;2022-08-01T14:42:07;25.10;33.30
50560;DHT22;36510;52.610;13.468;2022-08-01T14:46:57;25.10;33.20
50560;DHT22;36510;52.610;13.468;2022-08-01T14:51:48;25.10;33.10
50560;DHT22;36510;52.610;13.468;2022-08-01T14:56:38;25.10;33.20
50560;DHT22;36510;52.610;13.468;2022-08-01T15:01:29;24.90;33.30
50560;DHT22;36510;52.610;13.468;2022-08-01T15:06:19;24.90;33.60
50560;DHT22;36510;52.610;13.468;2022-08-01T15:11:10;24.90;33.10
50560;DHT22;36510;52.610;13.468;2022-08-01T15:16:00;25.00;31.70
50560;DHT22;36510;52.610;13.468;2022-08-01T15:20:51;25.10;30.30
50560;DHT22;36510;52.610;13.468;2022-08-01T15:25:41;25.10;29.60
50560;DHT22;36510;52.610;13.468;2022-08-01T15:30:32;25.10;29.40
50560;DHT22;36510;52.610;13.468;2022-08-01T15:35:23;25.10;29.70
50560;DHT22;36510;52.610;13.468;2022-08-01T15:40:13;25.10;29.30
50560;DHT22;36510;52.610;13.468;2022-08-01T15:45:04;25.10;28.90
50560;DHT22;36510;52.610;13.468;2022-08-01T15:49:55;25.10;28.80
50560;DHT22;36510;52.610;13.468;2022-08-01T15:54:49;25.00;27.30
50560;DHT22;36510;52.610;13.468;2022-08-01T15:59:40;24.90;26.80
50560;DHT22;36510;52.610;13.468;2022-08-01T16:04:30;24.90;27.20
50560;DHT22;36510;52.610;13.468;2022-08-01T16:09:21;25.00;27.30
50560;DHT22;36510;52.610;13.468;2022-08-01T16:14:11;25.10;27.30
50560;DHT22;36510;52.610;13.468;2022-08-01T16:19:02;25.10;26.70
50560;DHT22;36510;52.610;13.468;2022-08-01T16:23:54;25.10;26.30
50560;DHT22;36510;52.610;13.468;2022-08-01T16:28:44;25.10;26.30
50560;DHT22;36510;52.610;13.468;2022-08-01T16:33:37;25.00;26.60
50560;DHT22;36510;52.610;13.468;2022-08-01T16:38:28;25.10;26.20
50560;DHT22;36510;52.610;13.468;2022-08-01T16:43:18;25.10;26.60
50560;DHT22;36510;52.610;13.468;2022-08-01T16:48:10;25.10;26.80
50560;DHT22;36510;52.610;13.468;2022-08-01T16:53:01;25.10;26.90
50560;DHT22;36510;52.610;13.468;2022-08-01T16:57:51;24.90;27.10
50560;DHT22;36510;52.610;13.468;2022-08-01T17:02:42;24.90;27.70
50560;DHT22;36510;52.610;13.468;2022-08-01T17:07:35;25.00;28.10
50560;DHT22;36510;52.610;13.468;2022-08-01T17:12:26;25.00;28.20
50560;DHT22;36510;52.610;13.468;2022-08-01T17:17:17;25.00;28.40
50560;DHT22;36510;52.610;13.468;2022-08-01T17:22:07;24.90;28.20
50560;DHT22;36510;52.610;13.468;2022-08-01T17:26:58;25.00;28.70
50560;DHT22;36510;52.610;13.468;2022-08-01T17:31:48;24.90;28.60
50560;DHT22;36510;52.610;13.468;2022-08-01T17:36:39;24.90;28.10
50560;DHT22;36510;52.610;13.468;2022-08-01T17:41:29;24.90;28.60
50560;DHT22;36510;52.610;13.468;2022-08-01T17:46:20;24.90;28.00
50560;DHT22;36510;52.610;13.468;2022-08-01T17:51:11;24.80;28.20
50560;DHT22;36510;52.610;13.468;2022-08-01T17:56:01;24.80;28.40
50560;DHT22;36510;52.610;13.468;2022-08-01T18:00:54;24.70;28.50
50560;DHT22;36510;52.610;13.468;2022-08-01T18:05:45;24.70;28.60
50560;DHT22;36510;52.610;13.468;2022-08-01T18:10:35;24.60;28.70
50560;DHT22;36510;52.610;13.468;2022-08-01T18:15:26;24.60;28.90
50560;DHT22;36510;52.610;13.468;2022-08-01T18:20:18;24.50;28.80
50560;DHT22;36510;52.610;13.468;2022-08-01T18:25:09;24.50;28.90
50560;DHT22;36510;52.610;13.468;2022-08-01T18:29:59;24.40;28.90
50560;DHT22;36510;52.610;13.468;2022-08-01T18:34:50;24.30;28.80
50560;DHT22;36510;52.610;13.468;2022-08-01T18:39:41;24.30;28.80
50560;DHT22;36510;52.610;13.468;2022-08-01T18:44:31;24.10;28.50
50560;DHT22;36510;52.610;13.468;2022-08-01T18:49:22;24.10;28.90
50560;DHT22;36510;52.610;13.468;2022-08-01T18:54:13;24.00;28.80
50560;DHT22;36510;52.610;13.468;2022-08-01T18:59:04;23.90;29.00
50560;DHT22;36510;52.610;13.468;2022-08-01T19:03:54;23.80;28.80
50560;DHT22;36510;52.610;13.468;2022-08-01T19:08:45;23.80;28.90
50560;DHT22;36510;52.610;13.468;2022-08-01T19:13:35;23.70;28.90
50560;DHT22;36510;52.610;13.468;2022-08-01T19:18:27;23.70;28.50
50560;DHT22;36510;52.610;13.468;2022-08-01T19:23:18;23.70;28.30
50560;DHT22;36510;52.610;13.468;2022-08-01T19:28:27;23.60;32.40
50560;DHT22;36510;52.610;13.468;2022-08-01T19:33:19;23.50;32.00
50560;DHT22;36510;52.610;13.468;2022-08-01T19:38:10;23.40;32.70
50560;DHT22;36510;52.610;13.468;2022-08-01T19:43:02;23.20;35.70
50560;DHT22;36510;52.610;13.468;2022-08-01T19:47:54;23.10;36.10
50560;DHT22;36510;52.610;13.468;2022-08-01T19:52:46;23.10;36.20
50560;DHT22;36510;52.610;13.468;2022-08-01T19:57:40;23.00;34.50
50560;DHT22;36510;52.610;13.468;2022-08-01T20:02:32;22.90;32.00
50560;DHT22;36510;52.610;13.468;2022-08-01T20:07:23;22.90;33.30
50560;DHT22;36510;52.610;13.468;2022-08-01T20:12:14;22.90;35.60
50560;DHT22;36510;52.610;13.468;2022-08-01T20:17:04;22.80;33.40
50560;DHT22;36510;52.610;13.468;2022-08-01T20:21:59;22.80;32.70
50560;DHT22;36510;52.610;13.468;2022-08-01T20:26:51;22.80;32.70
50560;DHT22;36510;52.610;13.468;2022-08-01T20:31:48;22.90;32.00
50560;DHT22;36510;52.610;13.468;2022-08-01T20:36:39;22.90;32.10
50560;DHT22;36510;52.610;13.468;2022-08-01T20:41:30;22.80;32.10
50560;DHT22;36510;52.610;13.468;2022-08-01T20:46:25;22.70;32.00
50560;DHT22;36510;52.610;13.468;2022-08-01T20:51:17;22.70;32.60
50560;DHT22;36510;52.610;13.468;2022-08-01T20:56:34;22.60;35.40
50560;DHT22;36510;52.610;13.468;2022-08-01T21:01:37;22.60;36.70
50560;DHT22;36510;52.610;13.468;2022-08-01T21:06:37;22.60;37.40
50560;DHT22;36510;52.610;13.468;2022-08-01T21:11:49;22.60;36.30
50560;DHT22;36510;52.610;13.468;2022-08-01T21:16:46;22.50;36.60
50560;DHT22;36510;52.610;13.468;2022-08-01T21:21:43;22.50;36.50
50560;DHT22;36510;52.610;13.468;2022-08-01T21:26:37;22.40;36.50
50560;DHT22;36510;52.610;13.468;2022-08-01T21:31:32;22.30;37.30
50560;DHT22;36510;52.610;13.468;2022-08-01T21:36:25;22.10;37.10
50560;DHT22;36510;52.610;13.468;2022-08-01T21:41:16;22.10;38.10
50560;DHT22;36510;52.610;13.468;2022-08-01T21:46:08;22.00;37.90
50560;DHT22;36510;52.610;13.468;2022-08-01T21:51:09;21.90;38.80
50560;DHT22;36510;52.610;13.468;2022-08-01T21:56:16;21.80;39.40
50560;DHT22;36510;52.610;13.468;2022-08-01T22:01:29;21.80;38.90
50560;DHT22;36510;52.610;13.468;2022-08-01T22:06:23;21.90;39.00
50560;DHT22;36510;52.610;13.468;2022-08-01T22:11:18;21.80;38.70
50560;DHT22;36510;52.610;13.468;2022-08-01T22:16:11;21.70;38.70
50560;DHT22;36510;52.610;13.468;2022-08-01T22:21:04;21.50;39.30
50560;DHT22;36510;52.610;13.468;2022-08-01T22:25:55;21.40;40.00
50560;DHT22;36510;52.610;13.468;2022-08-01T22:30:48;21.40;39.90
50560;DHT22;36510;52.610;13.468;2022-08-01T22:35:39;21.10;40.70
50560;DHT22;36510;52.610;13.468;2022-08-01T22:40:32;21.10;40.60
50560;DHT22;36510;52.610;13.468;2022-08-01T22:45:44;21.10;40.00
50560;DHT22;36510;52.610;13.468;2022-08-01T22:50:38;21.00;39.80
50560;DHT22;36510;52.610;13.468;2022-08-01T22:55:33;20.90;40.40
50560;DHT22;36510;52.610;13.468;2022-08-01T23:00:32;20.80;40.70
50560;DHT22;36510;52.610;13.468;2022-08-01T23:05:25;20.80;41.00
50560;DHT22;36510;52.610;13.468;2022-08-01T23:10:23;20.70;41.10
50560;DHT22;36510;52.610;13.468;2022-08-01T23:15:14;20.70;41.20
50560;DHT22;36510;52.610;13.468;2022-08-01T23:20:06;20.70;41.80
50560;DHT22;36510;52.610;13.468;2022-08-01T23:24:58;20.70;41.50
50560;DHT22;36510;52.610;13.468;2022-08-01T23:29:49;20.80;41.20
50560;DHT22;36510;52.610;13.468;2022-08-01T23:34:39;20.70;41.40
50560;DHT22;36510;52.610;13.468;2022-08-01T23:39:30;20.50;42.10
50560;DHT22;36510;52.610;13.468;2022-08-01T23:44:20;20.50;42.50
50560;DHT22;36510;52.610;13.468;2022-08-01T23:49:11;20.50;42.80
50560;DHT22;36510;52.610;13.468;2022-08-01T23:54:02;20.60;42.20
50560;DHT22;36510;52.610;13.468;2022-08-01T23:58:53;20.60;41.90
